sensor_id;sensor_type;location;lat;lon;timestamp;temperature;humidity
33109;HTU21D;19481;51.118;6.940;2023-04-26T00:04:19;3.08;59.25
33109;HTU21D;19481;51.118;6.940;2023-04-26T00:09:20;3.01;59.57
33109;HTU21D;19481;51.118;6.940;2023-04-26T00:14:22;2.93;59.94
33109;HTU21D;19481;51.118;6.940;2023-04-26T00:19:25;2.78;60.03
33109;HTU21D;19481;51.118;6.940;2023-04-26T00:24:26;2.70;60.50
33109;HTU21D;19481;51.118;6.940;2023-04-26T00:29:28;2.62;60.73
33109;HTU21D;19481;51.118;6.940;2023-04-26T00:34:32;2.62;60.26
33109;HTU21D;19481;51.118;6.940;2023-04-26T00:39:34;2.68;60.67
33109;HTU21D;19481;51.118;6.940;2023-04-26T00:44:35;2.64;60.38
33109;HTU21D;19481;51.118;6.940;2023-04-26T00:49:40;2.56;60.20
33109;HTU21D;19481;51.118;6.940;2023-04-26T00:54:42;2.50;61.07
33109;HTU21D;19481;51.118;6.940;2023-04-26T00:59:44;2.37;61.34
33109;HTU21D;19481;51.118;6.940;2023-04-26T01:04:47;2.29;60.93
33109;HTU21D;19481;51.118;6.940;2023-04-26T01:09:48;2.24;61.48
33109;HTU21D;19481;51.118;6.940;2023-04-26T01:14:50;2.22;61.52
33109;HTU21D;19481;51.118;6.940;2023-04-26T01:19:54;2.14;61.50
33109;HTU21D;19481;51.118;6.940;2023-04-26T01:24:58;2.08;61.53
33109;HTU21D;19481;51.118;6.940;2023-04-26T01:30:01;2.07;61.93
33109;HTU21D;19481;51.118;6.940;2023-04-26T01:35:03;2.09;61.40
33109;HTU21D;19481;51.118;6.940;2023-04-26T01:40:09;2.11;61.72
33109;HTU21D;19481;51.118;6.940;2023-04-26T01:45:10;1.99;62.37
33109;HTU21D;19481;51.118;6.940;2023-04-26T01:50:12;1.93;62.35
33109;HTU21D;19481;51.118;6.940;2023-04-26T01:55:15;1.85;62.27
33109;HTU21D;19481;51.118;6.940;2023-04-26T02:00:17;1.71;62.82
33109;HTU21D;19481;51.118;6.940;2023-04-26T02:05:20;1.67;62.82
33109;HTU21D;19481;51.118;6.940;2023-04-26T02:10:23;1.62;62.53
33109;HTU21D;19481;51.118;6.940;2023-04-26T02:15:24;1.66;62.83
33109;HTU21D;19481;51.118;6.940;2023-04-26T02:20:26;1.64;62.79
33109;HTU21D;19481;51.118;6.940;2023-04-26T02:25:29;1.54;62.69
33109;HTU21D;19481;51.118;6.940;2023-04-26T02:30:31;1.57;62.64
33109;HTU21D;19481;51.118;6.940;2023-04-26T02:35:33;1.49;62.53
33109;HTU21D;19481;51.118;6.940;2023-04-26T02:40:36;1.47;62.60
33109;HTU21D;19481;51.118;6.940;2023-04-26T02:45:40;1.47;62.26
33109;HTU21D;19481;51.118;6.940;2023-04-26T02:50:42;1.33;63.08
33109;HTU21D;19481;51.118;6.940;2023-04-26T02:55:45;1.36;62.50
33109;HTU21D;19481;51.118;6.940;2023-04-26T03:00:46;1.35;63.34
33109;HTU21D;19481;51.118;6.940;2023-04-26T03:05:48;1.27;63.98
33109;HTU21D;19481;51.118;6.940;2023-04-26T03:10:51;1.13;63.88
33109;HTU21D;19481;51.118;6.940;2023-04-26T03:15:53;1.14;63.69
33109;HTU21D;19481;51.118;6.940;2023-04-26T03:20:54;1.06;63.92
33109;HTU21D;19481;51.118;6.940;2023-04-26T03:25:57;1.13;64.14
33109;HTU21D;19481;51.118;6.940;2023-04-26T03:30:59;0.98;64.72
33109;HTU21D;19481;51.118;6.940;2023-04-26T03:36:01;1.01;64.56
33109;HTU21D;19481;51.118;6.940;2023-04-26T03:41:04;1.05;63.76
33109;HTU21D;19481;51.118;6.940;2023-04-26T03:46:05;1.02;64.03
33109;HTU21D;19481;51.118;6.940;2023-04-26T03:51:07;0.97;63.69
33109;HTU21D;19481;51.118;6.940;2023-04-26T03:56:10;0.90;63.49
33109;HTU21D;19481;51.118;6.940;2023-04-26T04:01:11;0.84;63.80
33109;HTU21D;19481;51.118;6.940;2023-04-26T04:06:13;0.89;64.09
33109;HTU21D;19481;51.118;6.940;2023-04-26T04:11:16;0.91;63.70
33109;HTU21D;19481;51.118;6.940;2023-04-26T04:16:18;0.93;64.15
33109;HTU21D;19481;51.118;6.940;2023-04-26T04:21:19;0.97;64.27
33109;HTU21D;19481;51.118;6.940;2023-04-26T04:26:22;0.96;64.00
33109;HTU21D;19481;51.118;6.940;2023-04-26T04:31:24;0.99;64.82
33109;HTU21D;19481;51.118;6.940;2023-04-26T04:36:25;0.99;63.96
33109;HTU21D;19481;51.118;6.940;2023-04-26T04:41:28;0.95;63.49
33109;HTU21D;19481;51.118;6.940;2023-04-26T04:46:31;0.97;63.63
33109;HTU21D;19481;51.118;6.940;2023-04-26T04:51:33;1.24;63.64
33109;HTU21D;19481;51.118;6.940;2023-04-26T04:56:36;1.22;62.98
33109;HTU21D;19481;51.118;6.940;2023-04-26T05:01:39;1.36;62.78
33109;HTU21D;19481;51.118;6.940;2023-04-26T05:06:41;1.47;63.09
33109;HTU21D;19481;51.118;6.940;2023-04-26T05:11:44;1.67;62.50
33109;HTU21D;19481;51.118;6.940;2023-04-26T05:16:45;1.78;62.60
33109;HTU21D;19481;51.118;6.940;2023-04-26T05:21:47;1.95;62.49
33109;HTU21D;19481;51.118;6.940;2023-04-26T05:26:50;2.15;62.01
33109;HTU21D;19481;51.118;6.940;2023-04-26T05:31:51;2.35;62.25
33109;HTU21D;19481;51.118;6.940;2023-04-26T05:36:53;2.56;62.48
33109;HTU21D;19481;51.118;6.940;2023-04-26T05:41:56;2.85;61.26
33109;HTU21D;19481;51.118;6.940;2023-04-26T05:46:58;3.11;61.63
33109;HTU21D;19481;51.118;6.940;2023-04-26T05:51:59;3.33;60.98
33109;HTU21D;19481;51.118;6.940;2023-04-26T05:57:04;3.63;59.61
33109;HTU21D;19481;51.118;6.940;2023-04-26T06:02:06;5.25;57.13
33109;HTU21D;19481;51.118;6.940;2023-04-26T06:07:07;9.15;49.07
33109;HTU21D;19481;51.118;6.940;2023-04-26T06:12:10;10.77;48.58
33109;HTU21D;19481;51.118;6.940;2023-04-26T06:17:12;10.55;51.85
33109;HTU21D;19481;51.118;6.940;2023-04-26T06:22:13;10.09;55.36
33109;HTU21D;19481;51.118;6.940;2023-04-26T06:27:16;12.29;51.49
33109;HTU21D;19481;51.118;6.940;2023-04-26T06:32:18;14.28;49.68
33109;HTU21D;19481;51.118;6.940;2023-04-26T06:37:19;13.16;55.39
33109;HTU21D;19481;51.118;6.940;2023-04-26T06:42:22;12.96;55.65
33109;HTU21D;19481;51.118;6.940;2023-04-26T06:47:24;13.92;53.82
33109;HTU21D;19481;51.118;6.940;2023-04-26T06:52:26;13.70;55.62
33109;HTU21D;19481;51.118;6.940;2023-04-26T06:57:30;14.80;53.41
33109;HTU21D;19481;51.118;6.940;2023-04-26T07:02:31;13.86;56.77
33109;HTU21D;19481;51.118;6.940;2023-04-26T07:07:33;14.53;54.81
33109;HTU21D;19481;51.118;6.940;2023-04-26T07:12:36;13.46;57.34
33109;HTU21D;19481;51.118;6.940;2023-04-26T07:17:38;13.34;56.29
33109;HTU21D;19481;51.118;6.940;2023-04-26T07:22:39;13.91;53.91
33109;HTU21D;19481;51.118;6.940;2023-04-26T07:27:42;13.71;53.81
33109;HTU21D;19481;51.118;6.940;2023-04-26T07:32:44;13.26;54.71
33109;HTU21D;19481;51.118;6.940;2023-04-26T07:37:45;14.21;51.90
33109;HTU21D;19481;51.118;6.940;2023-04-26T07:42:49;13.06;55.44
33109;HTU21D;19481;51.118;6.940;2023-04-26T07:47:50;12.63;55.09
33109;HTU21D;19481;51.118;6.940;2023-04-26T07:52:52;12.96;52.38
33109;HTU21D;19481;51.118;6.940;2023-04-26T07:57:55;13.62;50.42
33109;HTU21D;19481;51.118;6.940;2023-04-26T08:02:57;14.15;49.94
33109;HTU21D;19481;51.118;6.940;2023-04-26T08:07:58;13.27;52.39
33109;HTU21D;19481;51.118;6.940;2023-04-26T08:13:02;13.03;51.74
33109;HTU21D;19481;51.118;6.940;2023-04-26T08:18:03;12.33;52.47
33109;HTU21D;19481;51.118;6.940;2023-04-26T08:23:06;12.70;50.35
33109;HTU21D;19481;51.118;6.940;2023-04-26T08:28:09;13.27;48.05
33109;HTU21D;19481;51.118;6.940;2023-04-26T08:33:13;11.76;51.01
33109;HTU21D;19481;51.118;6.940;2023-04-26T08:38:15;12.56;48.58
33109;HTU21D;19481;51.118;6.940;2023-04-26T08:43:18;12.71;48.26
33109;HTU21D;19481;51.118;6.940;2023-04-26T08:48:20;13.46;46.86
33109;HTU21D;19481;51.118;6.940;2023-04-26T08:53:22;13.31;47.01
33109;HTU21D;19481;51.118;6.940;2023-04-26T08:58:26;12.28;49.13
33109;HTU21D;19481;51.118;6.940;2023-04-26T09:03:28;12.66;47.04
33109;HTU21D;19481;51.118;6.940;2023-04-26T09:08:30;12.57;46.99
33109;HTU21D;19481;51.118;6.940;2023-04-26T09:13:34;12.49;43.14
33109;HTU21D;19481;51.118;6.940;2023-04-26T09:18:46;12.41;46.15
33109;HTU21D;19481;51.118;6.940;2023-04-26T09:23:57;12.51;45.65
33109;HTU21D;19481;51.118;6.940;2023-04-26T09:29:14;13.03;41.99
33109;HTU21D;19481;51.118;6.940;2023-04-26T09:34:16;12.33;45.76
33109;HTU21D;19481;51.118;6.940;2023-04-26T09:39:34;13.46;38.25
33109;HTU21D;19481;51.118;6.940;2023-04-26T09:44:37;13.93;41.71
33109;HTU21D;19481;51.118;6.940;2023-04-26T09:49:44;15.12;39.78
33109;HTU21D;19481;51.118;6.940;2023-04-26T09:54:47;14.44;42.48
33109;HTU21D;19481;51.118;6.940;2023-04-26T09:59:51;15.12;40.92
33109;HTU21D;19481;51.118;6.940;2023-04-26T10:04:55;14.30;43.14
33109;HTU21D;19481;51.118;6.940;2023-04-26T10:09:59;13.91;43.70
33109;HTU21D;19481;51.118;6.940;2023-04-26T10:15:06;13.32;43.18
33109;HTU21D;19481;51.118;6.940;2023-04-26T10:20:11;13.46;41.13
33109;HTU21D;19481;51.118;6.940;2023-04-26T10:25:13;13.22;43.95
33109;HTU21D;19481;51.118;6.940;2023-04-26T10:30:18;13.17;42.98
33109;HTU21D;19481;51.118;6.940;2023-04-26T10:35:21;13.59;41.45
33109;HTU21D;19481;51.118;6.940;2023-04-26T10:40:24;14.24;41.20
33109;HTU21D;19481;51.118;6.940;2023-04-26T10:45:28;14.13;41.45
33109;HTU21D;19481;51.118;6.940;2023-04-26T10:50:30;14.19;41.45
33109;HTU21D;19481;51.118;6.940;2023-04-26T10:55:37;14.35;36.62
33109;HTU21D;19481;51.118;6.940;2023-04-26T11:00:40;14.36;31.03
33109;HTU21D;19481;51.118;6.940;2023-04-26T11:06:05;13.63;37.96
33109;HTU21D;19481;51.118;6.940;2023-04-26T11:11:10;13.60;41.84
33109;HTU21D;19481;51.118;6.940;2023-04-26T11:16:15;13.19;41.53
33109;HTU21D;19481;51.118;6.940;2023-04-26T11:21:17;13.07;42.01
33109;HTU21D;19481;51.118;6.940;2023-04-26T11:26:18;13.49;40.91
33109;HTU21D;19481;51.118;6.940;2023-04-26T11:31:22;13.51;40.49
33109;HTU21D;19481;51.118;6.940;2023-04-26T11:36:24;13.17;41.72
33109;HTU21D;19481;51.118;6.940;2023-04-26T11:41:26;13.19;41.65
33109;HTU21D;19481;51.118;6.940;2023-04-26T11:46:29;13.47;40.66
33109;HTU21D;19481;51.118;6.940;2023-04-26T11:51:31;14.22;39.45
33109;HTU21D;19481;51.118;6.940;2023-04-26T11:56:33;14.12;40.23
33109;HTU21D;19481;51.118;6.940;2023-04-26T12:01:36;14.81;38.63
33109;HTU21D;19481;51.118;6.940;2023-04-26T12:06:41;15.25;38.11
33109;HTU21D;19481;51.118;6.940;2023-04-26T12:11:47;15.17;34.36
33109;HTU21D;19481;51.118;6.940;2023-04-26T12:16:51;14.95;36.77
33109;HTU21D;19481;51.118;6.940;2023-04-26T12:21:53;14.92;39.66
33109;HTU21D;19481;51.118;6.940;2023-04-26T12:26:55;14.99;39.47
33109;HTU21D;19481;51.118;6.940;2023-04-26T12:31:58;15.00;39.64
33109;HTU21D;19481;51.118;6.940;2023-04-26T12:37:00;15.48;38.75
33109;HTU21D;19481;51.118;6.940;2023-04-26T12:42:02;15.77;38.17
33109;HTU21D;19481;51.118;6.940;2023-04-26T12:47:05;15.55;38.37
33109;HTU21D;19481;51.118;6.940;2023-04-26T12:52:07;15.15;39.65
33109;HTU21D;19481;51.118;6.940;2023-04-26T12:57:09;15.70;38.61
33109;HTU21D;19481;51.118;6.940;2023-04-26T13:02:12;15.14;39.67
33109;HTU21D;19481;51.118;6.940;2023-04-26T13:07:14;15.25;39.46
33109;HTU21D;19481;51.118;6.940;2023-04-26T13:12:15;15.33;39.19
33109;HTU21D;19481;51.118;6.940;2023-04-26T13:17:19;15.15;38.75
33109;HTU21D;19481;51.118;6.940;2023-04-26T13:22:21;15.45;38.78
33109;HTU21D;19481;51.118;6.940;2023-04-26T13:27:22;15.15;39.36
33109;HTU21D;19481;51.118;6.940;2023-04-26T13:32:26;15.37;38.70
33109;HTU21D;19481;51.118;6.940;2023-04-26T13:37:28;15.38;38.37
33109;HTU21D;19481;51.118;6.940;2023-04-26T13:42:31;15.07;38.92
33109;HTU21D;19481;51.118;6.940;2023-04-26T13:47:34;15.70;36.99
33109;HTU21D;19481;51.118;6.940;2023-04-26T13:52:35;15.52;36.44
33109;HTU21D;19481;51.118;6.940;2023-04-26T13:57:37;15.61;37.58
33109;HTU21D;19481;51.118;6.940;2023-04-26T14:02:40;15.14;38.40
33109;HTU21D;19481;51.118;6.940;2023-04-26T14:07:42;14.84;38.49
33109;HTU21D;19481;51.118;6.940;2023-04-26T14:12:43;15.16;37.80
33109;HTU21D;19481;51.118;6.940;2023-04-26T14:17:46;15.36;36.37
33109;HTU21D;19481;51.118;6.940;2023-04-26T14:22:48;15.08;37.83
33109;HTU21D;19481;51.118;6.940;2023-04-26T14:27:50;15.37;36.77
33109;HTU21D;19481;51.118;6.940;2023-04-26T14:32:53;14.73;38.20
33109;HTU21D;19481;51.118;6.940;2023-04-26T14:37:54;14.80;38.07
33109;HTU21D;19481;51.118;6.940;2023-04-26T14:42:56;14.77;37.83
33109;HTU21D;19481;51.118;6.940;2023-04-26T14:47:59;14.69;36.66
33109;HTU21D;19481;51.118;6.940;2023-04-26T14:53:01;14.36;38.01
33109;HTU21D;19481;51.118;6.940;2023-04-26T14:58:03;14.33;37.68
33109;HTU21D;19481;51.118;6.940;2023-04-26T15:03:06;14.10;38.01
33109;HTU21D;19481;51.118;6.940;2023-04-26T15:08:08;13.91;38.22
33109;HTU21D;19481;51.118;6.940;2023-04-26T15:13:10;14.20;37.30
33109;HTU21D;19481;51.118;6.940;2023-04-26T15:18:12;14.11;37.19
33109;HTU21D;19481;51.118;6.940;2023-04-26T15:23:14;14.13;37.16
33109;HTU21D;19481;51.118;6.940;2023-04-26T15:28:16;14.04;37.21
33109;HTU21D;19481;51.118;6.940;2023-04-26T15:33:19;14.01;37.03
33109;HTU21D;19481;51.118;6.940;2023-04-26T15:38:20;13.93;36.98
33109;HTU21D;19481;51.118;6.940;2023-04-26T15:43:22;13.85;36.72
33109;HTU21D;19481;51.118;6.940;2023-04-26T15:48:25;13.60;36.62
33109;HTU21D;19481;51.118;6.940;2023-04-26T15:53:26;13.94;36.85
33109;HTU21D;19481;51.118;6.940;2023-04-26T15:58:28;13.79;37.01
33109;HTU21D;19481;51.118;6.940;2023-04-26T16:03:31;13.71;37.13
33109;HTU21D;19481;51.118;6.940;2023-04-26T16:08:32;13.26;38.11
33109;HTU21D;19481;51.118;6.940;2023-04-26T16:13:34;12.95;38.45
33109;HTU21D;19481;51.118;6.940;2023-04-26T16:18:37;12.50;39.17
33109;HTU21D;19481;51.118;6.940;2023-04-26T16:23:40;12.35;39.09
33109;HTU21D;19481;51.118;6.940;2023-04-26T16:28:41;12.19;39.07
33109;HTU21D;19481;51.118;6.940;2023-04-26T16:33:44;12.12;38.98
33109;HTU21D;19481;51.118;6.940;2023-04-26T16:38:46;12.18;38.75
33109;HTU21D;19481;51.118;6.940;2023-04-26T16:43:48;12.28;38.40
33109;HTU21D;19481;51.118;6.940;2023-04-26T16:48:53;12.12;38.62
33109;HTU21D;19481;51.118;6.940;2023-04-26T16:53:54;12.02;38.76
33109;HTU21D;19481;51.118;6.940;2023-04-26T16:58:56;12.01;38.94
33109;HTU21D;19481;51.118;6.940;2023-04-26T17:03:59;11.87;39.05
33109;HTU21D;19481;51.118;6.940;2023-04-26T17:09:01;11.86;38.91
33109;HTU21D;19481;51.118;6.940;2023-04-26T17:14:03;11.76;39.10
33109;HTU21D;19481;51.118;6.940;2023-04-26T17:19:06;11.67;39.18
33109;HTU21D;19481;51.118;6.940;2023-04-26T17:24:08;11.56;39.16
33109;HTU21D;19481;51.118;6.940;2023-04-26T17:29:10;11.54;39.19
33109;HTU21D;19481;51.118;6.940;2023-04-26T17:34:13;11.40;39.45
33109;HTU21D;19481;51.118;6.940;2023-04-26T17:39:15;11.30;39.56
33109;HTU21D;19481;51.118;6.940;2023-04-26T17:44:16;11.22;39.78
33109;HTU21D;19481;51.118;6.940;2023-04-26T17:49:19;11.07;39.76
33109;HTU21D;19481;51.118;6.940;2023-04-26T17:54:24;10.96;39.96
33109;HTU21D;19481;51.118;6.940;2023-04-26T17:59:26;10.95;40.06
33109;HTU21D;19481;51.118;6.940;2023-04-26T18:04:29;10.87;40.19
33109;HTU21D;19481;51.118;6.940;2023-04-26T18:09:31;10.81;40.33
33109;HTU21D;19481;51.118;6.940;2023-04-26T18:14:33;10.68;40.52
33109;HTU21D;19481;51.118;6.940;2023-04-26T18:19:36;10.66;40.41
33109;HTU21D;19481;51.118;6.940;2023-04-26T18:24:37;10.58;40.54
33109;HTU21D;19481;51.118;6.940;2023-04-26T18:29:39;10.46;40.79
33109;HTU21D;19481;51.118;6.940;2023-04-26T18:34:42;10.31;40.94
33109;HTU21D;19481;51.118;6.940;2023-04-26T18:39:44;10.24;40.90
33109;HTU21D;19481;51.118;6.940;2023-04-26T18:44:46;10.21;40.95
33109;HTU21D;19481;51.118;6.940;2023-04-26T18:49:49;10.15;41.10
33109;HTU21D;19481;51.118;6.940;2023-04-26T18:54:50;10.11;41.27
33109;HTU21D;19481;51.118;6.940;2023-04-26T18:59:52;10.05;41.28
33109;HTU21D;19481;51.118;6.940;2023-04-26T19:04:57;10.07;41.12
33109;HTU21D;19481;51.118;6.940;2023-04-26T19:09:58;10.03;41.28
33109;HTU21D;19481;51.118;6.940;2023-04-26T19:15:00;9.94;41.48
33109;HTU21D;19481;51.118;6.940;2023-04-26T19:20:04;9.94;41.41
33109;HTU21D;19481;51.118;6.940;2023-04-26T19:25:08;9.85;41.65
33109;HTU21D;19481;51.118;6.940;2023-04-26T19:30:11;9.72;41.87
33109;HTU21D;19481;51.118;6.940;2023-04-26T19:35:14;9.70;41.94
33109;HTU21D;19481;51.118;6.940;2023-04-26T19:40:16;9.61;42.24
33109;HTU21D;19481;51.118;6.940;2023-04-26T19:45:18;9.62;42.19
33109;HTU21D;19481;51.118;6.940;2023-04-26T19:50:21;9.54;42.47
33109;HTU21D;19481;51.118;6.940;2023-04-26T19:55:23;9.44;42.81
33109;HTU21D;19481;51.118;6.940;2023-04-26T20:00:25;9.46;42.81
33109;HTU21D;19481;51.118;6.940;2023-04-26T20:05:30;9.38;43.08
33109;HTU21D;19481;51.118;6.940;2023-04-26T20:10:32;9.32;43.32
33109;HTU21D;19481;51.118;6.940;2023-04-26T20:15:34;9.30;43.43
33109;HTU21D;19481;51.118;6.940;2023-04-26T20:20:37;9.23;43.57
33109;HTU21D;19481;51.118;6.940;2023-04-26T20:25:39;9.22;43.71
33109;HTU21D;19481;51.118;6.940;2023-04-26T20:30:40;9.18;43.93
33109;HTU21D;19481;51.118;6.940;2023-04-26T20:35:43;9.18;43.98
33109;HTU21D;19481;51.118;6.940;2023-04-26T20:40:48;9.08;44.54
33109;HTU21D;19481;51.118;6.940;2023-04-26T20:45:49;9.01;44.78
33109;HTU21D;19481;51.118;6.940;2023-04-26T20:50:53;8.94;45.01
33109;HTU21D;19481;51.118;6.940;2023-04-26T20:55:56;8.97;44.86
33109;HTU21D;19481;51.118;6.940;2023-04-26T21:00:57;8.94;44.97
33109;HTU21D;19481;51.118;6.940;2023-04-26T21:06:01;8.93;45.03
33109;HTU21D;19481;51.118;6.940;2023-04-26T21:11:02;8.97;44.68
33109;HTU21D;19481;51.118;6.940;2023-04-26T21:16:05;8.96;44.77
33109;HTU21D;19481;51.118;6.940;2023-04-26T21:21:09;8.90;44.96
33109;HTU21D;19481;51.118;6.940;2023-04-26T21:26:11;8.78;45.32
33109;HTU21D;19481;51.118;6.940;2023-04-26T21:31:12;8.76;45.39
33109;HTU21D;19481;51.118;6.940;2023-04-26T21:36:15;8.71;45.38
33109;HTU21D;19481;51.118;6.940;2023-04-26T21:41:17;8.66;45.42
33109;HTU21D;19481;51.118;6.940;2023-04-26T21:46:19;8.61;45.56
33109;HTU21D;19481;51.118;6.940;2023-04-26T21:51:22;8.58;45.78
33109;HTU21D;19481;51.118;6.940;2023-04-26T21:56:23;8.60;45.61
33109;HTU21D;19481;51.118;6.940;2023-04-26T22:01:25;8.58;45.70
33109;HTU21D;19481;51.118;6.940;2023-04-26T22:06:28;8.53;45.83
33109;HTU21D;19481;51.118;6.940;2023-04-26T22:11:30;8.48;46.02
33109;HTU21D;19481;51.118;6.940;2023-04-26T22:16:31;8.42;46.33
33109;HTU21D;19481;51.118;6.940;2023-04-26T22:21:34;8.44;46.25
33109;HTU21D;19481;51.118;6.940;2023-04-26T22:26:36;8.46;46.24
33109;HTU21D;19481;51.118;6.940;2023-04-26T22:31:38;8.33;46.62
33109;HTU21D;19481;51.118;6.940;2023-04-26T22:36:41;8.32;46.57
33109;HTU21D;19481;51.118;6.940;2023-04-26T22:41:42;8.32;46.62
33109;HTU21D;19481;51.118;6.940;2023-04-26T22:46:44;8.22;46.98
33109;HTU21D;19481;51.118;6.940;2023-04-26T22:51:47;8.19;46.90
33109;HTU21D;19481;51.118;6.940;2023-04-26T22:56:49;8.11;47.23
33109;HTU21D;19481;51.118;6.940;2023-04-26T23:01:51;7.91;47.87
33109;HTU21D;19481;51.118;6.940;2023-04-26T23:06:55;7.79;48.08
33109;HTU21D;19481;51.118;6.940;2023-04-26T23:11:56;7.64;48.57
33109;HTU21D;19481;51.118;6.940;2023-04-26T23:16:59;7.40;49.10
33109;HTU21D;19481;51.118;6.940;2023-04-26T23:22:02;7.22;49.27
33109;HTU21D;19481;51.118;6.940;2023-04-26T23:27:03;7.09;49.33
33109;HTU21D;19481;51.118;6.940;2023-04-26T23:32:05;6.89;49.98
33109;HTU21D;19481;51.118;6.940;2023-04-26T23:37:08;6.64;50.28
33109;HTU21D;19481;51.118;6.940;2023-04-26T23:42:10;6.52;50.66
33109;HTU21D;19481;51.118;6.940;2023-04-26T23:47:12;6.44;50.72
33109;HTU21D;19481;51.118;6.940;2023-04-26T23:52:15;6.29;50.65
33109;HTU21D;19481;51.118;6.940;2023-04-26T23:57:16;6.05;51.34
